Time;durP1;ratioP1;P1;durP2;ratioP2;P2;SDS_P1;SDS_P2;PMS_P1;PMS_P2;Temp;Humidity;BMP_temperature;BMP_pressure;BME280_temperature;BME280_humidity;BME280_pressure;Samples;Min_cycle;Max_cycle;Signal;HPM_P1;HPM_P2
2022/09/19 00:01:30;;;;;;;0.20;0.20;;;9.70;99.90;;;;;;5068425;28;20455;-81
2022/09/19 00:03:59;;;;;;;0.20;0.20;;;9.60;99.90;;;;;;5071417;28;20455;-81
2022/09/19 00:06:26;;;;;;;0.20;0.20;;;9.60;99.90;;;;;;5055815;28;20552;-80
2022/09/19 00:08:53;;;;;;;0.20;0.20;;;9.60;99.90;;;;;;5071153;28;20443;-80
2022/09/19 00:11:20;;;;;;;0.20;0.20;;;9.50;99.90;;;;;;5070485;28;20677;-80
2022/09/19 00:13:48;;;;;;;0.20;0.20;;;9.50;99.90;;;;;;5072838;28;20444;-80
2022/09/19 00:16:20;;;;;;;0.20;0.20;;;9.50;99.90;;;;;;5071527;28;20502;-80
2022/09/19 00:18:47;;;;;;;0.20;0.20;;;9.50;99.90;;;;;;5067432;28;20452;-80
2022/09/19 00:21:24;;;;;;;0.20;0.20;;;9.40;99.90;;;;;;5070375;28;20497;-80
2022/09/19 00:26:35;;;;;;;0.20;0.20;;;9.50;99.90;;;;;;5065406;28;20954;-80
2022/09/19 00:29:01;;;;;;;0.20;0.20;;;9.40;99.90;;;;;;5071650;28;20444;-81
2022/09/19 00:31:27;;;;;;;0.20;0.20;;;9.40;99.90;;;;;;5070205;28;20448;-80
2022/09/19 00:33:53;;;;;;;0.20;0.20;;;9.40;99.90;;;;;;5070222;28;20502;-80
2022/09/19 00:36:19;;;;;;;0.20;0.20;;;9.40;99.90;;;;;;5062034;28;20842;-80
2022/09/19 00:38:45;;;;;;;0.20;0.20;;;9.40;99.90;;;;;;5065119;28;20440;-80
2022/09/19 00:41:20;;;;;;;0.20;0.20;;;9.40;99.90;;;;;;5070234;28;20541;-80
2022/09/19 00:43:50;;;;;;;0.20;0.20;;;9.30;99.90;;;;;;5068421;28;20658;-81
2022/09/19 00:46:16;;;;;;;0.27;0.27;;;9.30;99.90;;;;;;5071013;28;20458;-80
2022/09/19 00:48:45;;;;;;;0.20;0.20;;;9.20;99.90;;;;;;5072124;28;20473;-80
2022/09/19 00:51:16;;;;;;;0.20;0.20;;;9.20;99.90;;;;;;5070118;28;20436;-80
2022/09/19 00:53:43;;;;;;;0.20;0.20;;;9.10;99.90;;;;;;5070894;28;20436;-80
2022/09/19 00:56:09;;;;;;;0.20;0.20;;;9.10;99.90;;;;;;5069497;28;20444;-81
2022/09/19 00:58:38;;;;;;;0.20;0.20;;;9.10;99.90;;;;;;5071237;28;20493;-80
2022/09/19 01:01:04;;;;;;;0.20;0.20;;;9.10;99.90;;;;;;5068821;28;20783;-81
2022/09/19 01:03:30;;;;;;;0.20;0.20;;;9.10;99.90;;;;;;5068651;28;20451;-80
2022/09/19 01:06:10;;;;;;;0.20;0.20;;;9.10;99.90;;;;;;5068410;28;20751;-81
2022/09/19 01:08:52;;;;;;;0.20;0.20;;;9.20;99.90;;;;;;5070615;28;20890;-80
2022/09/19 01:11:42;;;;;;;0.20;0.20;;;9.10;99.90;;;;;;5063568;28;20527;-80
2022/09/19 01:14:39;;;;;;;0.20;0.20;;;9.10;99.90;;;;;;5065621;28;20487;-80
2022/09/19 01:17:34;;;;;;;0.20;0.20;;;9.00;99.90;;;;;;5065742;28;20446;-82
2022/09/19 01:20:18;;;;;;;0.20;0.20;;;9.00;99.90;;;;;;5052849;28;20440;-80
2022/09/19 01:23:05;;;;;;;0.20;0.20;;;9.00;99.90;;;;;;5068205;28;20501;-81
2022/09/19 01:25:46;;;;;;;0.20;0.20;;;9.10;99.90;;;;;;5067344;28;20489;-81
2022/09/19 01:28:26;;;;;;;0.20;0.20;;;9.00;99.90;;;;;;5067672;28;20891;-80
2022/09/19 01:31:17;;;;;;;0.20;0.20;;;9.00;99.90;;;;;;5068912;28;20440;-81
2022/09/19 01:34:08;;;;;;;0.20;0.20;;;8.90;99.90;;;;;;5066972;28;20515;-81
2022/09/19 01:36:46;;;;;;;0.20;0.20;;;9.00;99.90;;;;;;5069191;28;20472;-80
2022/09/19 01:39:16;;;;;;;0.20;0.20;;;9.00;99.90;;;;;;5068225;28;20923;-81
2022/09/19 01:41:49;;;;;;;0.20;0.20;;;9.00;99.90;;;;;;5069567;28;20519;-80
2022/09/19 01:44:18;;;;;;;0.20;0.20;;;9.00;99.90;;;;;;5069254;28;20493;-80
2022/09/19 01:47:01;;;;;;;0.20;0.20;;;9.00;99.90;;;;;;5056456;28;20836;-81
2022/09/19 01:50:05;;;;;;;0.20;0.20;;;8.90;99.90;;;;;;5060332;28;20444;-80
2022/09/19 01:52:49;;;;;;;0.20;0.20;;;8.90;99.90;;;;;;5068124;28;20807;-80
2022/09/19 01:55:23;;;;;;;0.20;0.20;;;8.90;99.90;;;;;;5062952;28;20466;-80
2022/09/19 01:58:01;;;;;;;0.20;0.20;;;8.90;99.90;;;;;;5064893;28;20464;-81
2022/09/19 02:00:27;;;;;;;0.20;0.20;;;8.80;99.90;;;;;;5068978;28;20451;-80
2022/09/19 02:03:02;;;;;;;0.20;0.20;;;8.80;99.90;;;;;;5067601;28;20472;-80
2022/09/19 02:05:54;;;;;;;0.20;0.20;;;8.80;99.90;;;;;;5067538;28;20478;-80
2022/09/19 02:08:37;;;;;;;0.30;0.30;;;8.70;99.90;;;;;;5068710;28;21072;-80
2022/09/19 02:11:16;;;;;;;0.20;0.20;;;8.80;99.90;;;;;;5069599;28;20803;-80
2022/09/19 02:13:48;;;;;;;0.20;0.20;;;8.80;99.90;;;;;;5067438;28;20478;-80
2022/09/19 02:16:38;;;;;;;0.20;0.20;;;8.70;99.90;;;;;;5066701;28;20443;-81
2022/09/19 02:19:07;;;;;;;0.30;0.30;;;8.70;99.90;;;;;;5068254;28;20952;-80
2022/09/19 02:21:41;;;;;;;0.20;0.20;;;8.80;99.90;;;;;;5067960;28;21153;-80
2022/09/19 02:24:13;;;;;;;0.20;0.20;;;8.70;99.90;;;;;;5065549;28;20454;-80
2022/09/19 02:26:40;;;;;;;0.20;0.20;;;8.70;99.90;;;;;;5067636;28;20959;-80
2022/09/19 02:29:08;;;;;;;0.27;0.27;;;8.70;99.90;;;;;;5065791;28;20455;-80
2022/09/19 02:31:34;;;;;;;0.20;0.20;;;8.80;99.90;;;;;;5069004;28;20796;-80
2022/09/19 02:34:05;;;;;;;0.30;0.30;;;8.80;99.90;;;;;;5067956;28;20610;-80
2022/09/19 02:36:55;;;;;;;0.30;0.30;;;8.80;99.90;;;;;;5065373;28;20444;-80
2022/09/19 02:39:28;;;;;;;0.20;0.20;;;8.90;99.90;;;;;;5066546;28;20535;-80
2022/09/19 02:42:14;;;;;;;0.23;0.23;;;8.90;99.90;;;;;;5068012;28;20908;-80
2022/09/19 02:45:10;;;;;;;0.20;0.20;;;8.80;99.90;;;;;;5065898;28;20452;-80
2022/09/19 02:47:56;;;;;;;0.20;0.20;;;8.80;99.90;;;;;;5085130;28;20507;-80
2022/09/19 02:50:31;;;;;;;0.20;0.20;;;8.80;99.90;;;;;;5070016;28;20825;-80
2022/09/19 02:53:00;;;;;;;0.20;0.20;;;8.80;99.90;;;;;;5066149;28;20436;-81
2022/09/19 02:55:30;;;;;;;0.20;0.20;;;8.70;99.90;;;;;;5066221;28;20497;-80
2022/09/19 02:57:58;;;;;;;0.20;0.20;;;8.80;99.90;;;;;;5068923;28;20456;-80
2022/09/19 03:00:25;;;;;;;0.30;0.30;;;8.80;99.90;;;;;;5066737;28;20974;-80
2022/09/19 03:02:57;;;;;;;0.20;0.20;;;8.80;99.90;;;;;;5067374;28;20450;-81
2022/09/19 03:05:26;;;;;;;0.30;0.30;;;8.80;99.90;;;;;;5067567;28;20785;-81
2022/09/19 03:08:01;;;;;;;0.20;0.20;;;8.80;99.90;;;;;;5067264;28;20476;-80
2022/09/19 03:10:33;;;;;;;0.20;0.20;;;8.80;99.90;;;;;;5065134;28;20447;-80
2022/09/19 03:13:02;;;;;;;0.20;0.20;;;8.70;99.90;;;;;;5066606;28;20448;-80
2022/09/19 03:15:38;;;;;;;0.20;0.20;;;8.70;99.90;;;;;;5066909;28;20435;-80
2022/09/19 03:18:13;;;;;;;0.30;0.30;;;8.70;99.90;;;;;;5065777;28;20971;-79
2022/09/19 03:20:44;;;;;;;0.20;0.20;;;8.70;99.90;;;;;;5055893;28;20561;-80
2022/09/19 03:23:11;;;;;;;0.20;0.20;;;8.70;99.90;;;;;;5067762;28;20448;-80
2022/09/19 03:25:38;;;;;;;0.20;0.20;;;8.70;99.90;;;;;;5067291;28;20868;-80
2022/09/19 03:28:04;;;;;;;0.20;0.20;;;8.80;99.90;;;;;;5066041;28;20495;-81
2022/09/19 03:30:29;;;;;;;0.20;0.20;;;8.80;99.90;;;;;;5068012;28;20443;-80
2022/09/19 03:32:55;;;;;;;0.20;0.20;;;8.90;99.90;;;;;;5067423;28;20456;-80
2022/09/19 03:35:21;;;;;;;0.30;0.30;;;8.90;99.90;;;;;;5068879;28;20205;-80
2022/09/19 03:37:47;;;;;;;0.20;0.20;;;9.00;99.90;;;;;;5069177;28;20593;-80
2022/09/19 03:40:12;;;;;;;0.20;0.20;;;9.10;99.90;;;;;;5072262;28;20432;-80
2022/09/19 03:42:38;;;;;;;0.20;0.20;;;9.10;99.90;;;;;;5072225;28;20284;-80
2022/09/19 03:45:05;;;;;;;0.20;0.20;;;9.00;99.90;;;;;;5070643;28;20611;-80
2022/09/19 03:47:30;;;;;;;0.20;0.20;;;9.00;99.90;;;;;;5070609;28;20272;-80
2022/09/19 03:49:57;;;;;;;0.20;0.20;;;9.00;99.90;;;;;;5070215;28;20808;-80
2022/09/19 03:52:27;;;;;;;0.20;0.20;;;8.90;99.90;;;;;;5069729;28;20229;-80
2022/09/19 03:54:53;;;;;;;0.20;0.20;;;8.90;99.90;;;;;;5071032;28;20435;-80
2022/09/19 03:57:18;;;;;;;0.20;0.20;;;8.90;99.90;;;;;;5068833;28;20965;-80
2022/09/19 03:59:45;;;;;;;0.30;0.30;;;8.80;99.90;;;;;;5072323;28;20428;-80
2022/09/19 04:02:11;;;;;;;0.20;0.20;;;8.80;99.90;;;;;;5065410;28;20598;-80
2022/09/19 04:04:38;;;;;;;0.20;0.20;;;8.80;99.90;;;;;;5065842;28;20447;-80
2022/09/19 04:07:04;;;;;;;0.20;0.20;;;8.80;99.90;;;;;;5066457;28;20468;-80
2022/09/19 04:09:29;;;;;;;0.20;0.20;;;8.80;99.90;;;;;;5071121;28;20459;-80
2022/09/19 04:11:56;;;;;;;0.20;0.20;;;8.80;99.90;;;;;;5064703;28;20190;-80
2022/09/19 04:14:23;;;;;;;0.20;0.20;;;8.70;99.90;;;;;;5072548;28;20178;-80
2022/09/19 04:16:49;;;;;;;0.20;0.20;;;8.70;99.90;;;;;;5068663;28;20452;-80
2022/09/19 04:19:15;;;;;;;0.20;0.20;;;8.70;99.90;;;;;;5070288;28;20448;-80
2022/09/19 04:21:41;;;;;;;0.20;0.20;;;8.70;99.90;;;;;;5071083;28;20470;-80
2022/09/19 04:24:10;;;;;;;0.20;0.20;;;8.60;99.90;;;;;;5069257;28;20451;-80
2022/09/19 04:26:36;;;;;;;0.20;0.20;;;8.60;99.90;;;;;;5068254;28;20424;-81
2022/09/19 04:29:03;;;;;;;0.20;0.20;;;8.60;99.90;;;;;;5071431;28;20951;-81
2022/09/19 04:31:35;;;;;;;0.20;0.20;;;8.60;99.90;;;;;;5069279;28;20182;-81
2022/09/19 04:34:02;;;;;;;0.20;0.20;;;8.50;99.90;;;;;;5069924;28;20483;-80
2022/09/19 04:36:31;;;;;;;0.30;0.30;;;8.60;99.90;;;;;;5070528;28;20447;-80
2022/09/19 04:38:58;;;;;;;0.30;0.30;;;8.60;99.90;;;;;;5069905;28;20431;-80
2022/09/19 04:41:24;;;;;;;0.30;0.30;;;8.50;99.90;;;;;;5068110;28;20878;-80
2022/09/19 04:43:50;;;;;;;0.20;0.20;;;8.50;99.90;;;;;;5069287;28;20531;-80
2022/09/19 04:46:20;;;;;;;0.20;0.20;;;8.40;99.90;;;;;;5067528;28;20174;-80
2022/09/19 04:48:47;;;;;;;0.30;0.30;;;8.40;99.90;;;;;;5070393;28;21017;-80
2022/09/19 04:51:12;;;;;;;0.30;0.30;;;8.30;99.90;;;;;;5069370;28;20444;-80
2022/09/19 04:53:38;;;;;;;0.20;0.20;;;8.30;99.90;;;;;;5069223;28;20440;-80
2022/09/19 04:56:04;;;;;;;0.30;0.30;;;8.30;99.90;;;;;;5070171;28;20178;-81
2022/09/19 04:58:29;;;;;;;0.20;0.20;;;8.30;99.90;;;;;;5069228;28;20197;-80
2022/09/19 05:00:55;;;;;;;0.20;0.20;;;8.40;99.90;;;;;;5066327;28;20712;-81
2022/09/19 05:03:25;;;;;;;0.20;0.20;;;8.40;99.90;;;;;;5068393;28;20194;-80
2022/09/19 05:05:51;;;;;;;0.20;0.20;;;8.40;99.90;;;;;;5064665;28;20183;-80
2022/09/19 05:08:20;;;;;;;0.20;0.20;;;8.40;99.90;;;;;;5070695;28;20510;-81
2022/09/19 05:10:47;;;;;;;0.20;0.20;;;8.40;99.90;;;;;;5068667;28;21070;-80
2022/09/19 05:13:12;;;;;;;0.30;0.30;;;8.40;99.90;;;;;;5069579;28;20822;-80
2022/09/19 05:15:41;;;;;;;0.30;0.30;;;8.40;99.90;;;;;;5065999;28;20444;-80
2022/09/19 05:18:09;;;;;;;0.30;0.30;;;8.50;99.90;;;;;;5067684;28;20231;-80
2022/09/19 05:20:35;;;;;;;0.20;0.20;;;8.50;99.90;;;;;;5063606;28;20440;-80
2022/09/19 05:23:01;;;;;;;0.20;0.20;;;8.60;99.90;;;;;;5068721;28;20455;-80
2022/09/19 05:25:28;;;;;;;0.30;0.30;;;8.60;99.90;;;;;;5068865;28;20436;-80
2022/09/19 05:27:55;;;;;;;0.20;0.20;;;8.70;99.90;;;;;;5062659;28;20259;-80
2022/09/19 05:30:24;;;;;;;0.20;0.20;;;8.70;99.90;;;;;;5069008;28;20455;-80
2022/09/19 05:32:50;;;;;;;0.20;0.20;;;8.70;99.90;;;;;;5069436;28;20581;-79
2022/09/19 05:35:16;;;;;;;0.20;0.20;;;8.70;99.90;;;;;;5066486;28;20472;-80
2022/09/19 05:37:44;;;;;;;0.20;0.20;;;8.70;99.90;;;;;;5068291;28;20437;-80
2022/09/19 05:40:13;;;;;;;0.20;0.20;;;8.80;99.90;;;;;;5070181;28;20443;-80
2022/09/19 05:42:42;;;;;;;0.20;0.20;;;8.80;99.90;;;;;;5069109;28;21071;-79
2022/09/19 05:45:10;;;;;;;0.20;0.20;;;8.80;99.90;;;;;;5069778;28;20473;-79
2022/09/19 05:47:39;;;;;;;0.20;0.20;;;8.80;99.90;;;;;;5077824;28;20482;-80
2022/09/19 05:50:09;;;;;;;0.20;0.20;;;8.90;99.90;;;;;;5062598;28;20476;-80
2022/09/19 05:55:25;;;;;;;0.20;0.20;;;8.80;99.90;;;;;;5067232;28;20471;-79
2022/09/19 05:57:53;;;;;;;0.20;0.20;;;8.80;99.90;;;;;;5069077;28;20442;-79
2022/09/19 06:00:20;;;;;;;0.20;0.20;;;8.80;99.90;;;;;;5065664;28;20546;-80
2022/09/19 06:03:00;;;;;;;0.20;0.20;;;8.90;99.90;;;;;;5067908;28;20448;-79
2022/09/19 06:05:27;;;;;;;0.20;0.20;;;8.90;99.90;;;;;;5069345;28;20469;-79
2022/09/19 06:07:56;;;;;;;0.20;0.20;;;9.00;99.90;;;;;;5069733;28;20480;-79
2022/09/19 06:10:23;;;;;;;0.10;0.10;;;9.20;99.90;;;;;;5057064;28;20446;-80
2022/09/19 06:12:49;;;;;;;0.20;0.20;;;9.30;99.90;;;;;;5064004;28;20456;-79
2022/09/19 06:15:15;;;;;;;0.20;0.20;;;9.40;99.90;;;;;;5070549;28;20761;-79
2022/09/19 06:17:41;;;;;;;0.20;0.20;;;9.60;99.90;;;;;;5061613;28;20874;-79
2022/09/19 06:20:07;;;;;;;0.20;0.20;;;9.80;99.90;;;;;;5070322;28;20460;-80
2022/09/19 06:22:33;;;;;;;0.20;0.20;;;10.00;99.90;;;;;;5062349;28;20531;-78
2022/09/19 06:25:00;;;;;;;0.20;0.20;;;10.00;99.90;;;;;;5066199;28;20526;-78
2022/09/19 06:27:27;;;;;;;0.20;0.20;;;10.20;99.90;;;;;;5060158;28;20229;-80
2022/09/19 06:29:53;;;;;;;0.20;0.20;;;10.20;99.90;;;;;;5065907;28;20440;-78
2022/09/19 06:32:19;;;;;;;0.20;0.20;;;10.30;99.90;;;;;;5066541;28;20935;-78
2022/09/19 06:34:44;;;;;;;0.20;0.20;;;10.30;99.90;;;;;;5060824;28;20282;-79
2022/09/19 06:37:11;;;;;;;0.20;0.20;;;10.30;99.90;;;;;;5064634;28;20508;-78
2022/09/19 06:39:37;;;;;;;0.20;0.20;;;10.30;99.90;;;;;;5069195;28;20193;-78
2022/09/19 06:42:03;;;;;;;0.20;0.20;;;10.30;99.90;;;;;;5067965;28;20527;-78
2022/09/19 06:44:30;;;;;;;0.20;0.20;;;10.30;99.90;;;;;;5066678;28;20898;-78
2022/09/19 06:46:56;;;;;;;0.20;0.20;;;10.30;99.90;;;;;;5068525;28;20233;-79
2022/09/19 06:49:21;;;;;;;0.20;0.20;;;10.40;99.90;;;;;;5065439;28;20472;-79
2022/09/19 06:51:47;;;;;;;0.10;0.10;;;10.40;99.90;;;;;;5064545;28;20475;-79
2022/09/19 06:54:12;;;;;;;0.20;0.20;;;10.40;99.90;;;;;;5065907;28;20565;-80
2022/09/19 06:56:39;;;;;;;0.10;0.10;;;10.40;99.90;;;;;;5067416;28;20181;-79
2022/09/19 06:59:05;;;;;;;0.10;0.10;;;10.40;99.90;;;;;;5067290;28;20246;-79
2022/09/19 07:01:32;;;;;;;0.20;0.20;;;10.60;99.90;;;;;;5068761;28;20452;-79
2022/09/19 07:03:57;;;;;;;0.20;0.20;;;10.90;99.90;;;;;;5065253;28;20193;-79
2022/09/19 07:06:22;;;;;;;0.20;0.20;;;11.10;99.90;;;;;;5062721;28;20444;-79
2022/09/19 07:08:48;;;;;;;0.20;0.20;;;11.20;99.90;;;;;;5063153;28;20205;-79
2022/09/19 07:11:14;;;;;;;0.20;0.20;;;11.30;99.90;;;;;;5070635;28;20178;-79
2022/09/19 07:13:39;;;;;;;0.17;0.17;;;11.20;99.90;;;;;;5065848;28;21903;-79
2022/09/19 07:16:06;;;;;;;0.10;0.10;;;11.20;99.90;;;;;;5065616;28;20935;-78
2022/09/19 07:18:37;;;;;;;0.10;0.10;;;11.20;99.90;;;;;;5068964;28;21220;-79
2022/09/19 07:21:03;;;;;;;0.10;0.10;;;11.40;99.90;;;;;;5070136;28;20459;-82
2022/09/19 07:23:29;;;;;;;0.20;0.20;;;11.50;99.90;;;;;;5070135;28;20440;-80
2022/09/19 07:25:55;;;;;;;0.10;0.10;;;11.60;99.90;;;;;;5071223;28;20828;-80
2022/09/19 07:28:22;;;;;;;0.10;0.10;;;11.60;99.90;;;;;;5063364;28;20563;-80
2022/09/19 07:30:48;;;;;;;0.10;0.10;;;11.80;99.90;;;;;;5073773;28;20419;-79
2022/09/19 07:33:17;;;;;;;0.10;0.10;;;11.80;99.90;;;;;;5068071;28;20490;-80
2022/09/19 07:35:43;;;;;;;0.10;0.10;;;11.70;99.90;;;;;;5070888;28;20582;-80
2022/09/19 07:38:13;;;;;;;0.10;0.10;;;11.80;99.90;;;;;;5068490;28;20873;-80
2022/09/19 07:40:39;;;;;;;0.10;0.10;;;12.00;99.90;;;;;;5073797;28;20427;-80
2022/09/19 07:43:05;;;;;;;0.10;0.10;;;12.00;99.90;;;;;;5071513;28;20443;-82
2022/09/19 07:45:36;;;;;;;0.20;0.20;;;12.20;99.90;;;;;;5073650;28;20450;-78
2022/09/19 07:48:03;;;;;;;0.10;0.10;;;12.30;99.90;;;;;;5073535;28;20216;-78
2022/09/19 07:50:29;;;;;;;0.10;0.10;;;12.50;99.90;;;;;;5070095;28;20442;-84
2022/09/19 07:53:00;;;;;;;0.10;0.10;;;12.70;99.90;;;;;;5064412;28;20466;-84
2022/09/19 07:55:26;;;;;;;0.10;0.10;;;12.90;99.90;;;;;;5067272;28;20452;-83
2022/09/19 07:57:55;;;;;;;0.10;0.10;;;13.00;99.90;;;;;;5057637;28;20462;-82
2022/09/19 08:00:20;;;;;;;0.10;0.10;;;13.20;99.90;;;;;;5062036;28;20459;-82
2022/09/19 08:02:57;;;;;;;0.10;0.10;;;13.40;99.90;;;;;;5063885;28;20551;-81
2022/09/19 08:05:23;;;;;;;0.10;0.10;;;13.30;99.90;;;;;;5057360;28;20787;-80
2022/09/19 08:07:50;;;;;;;0.10;0.10;;;13.10;99.90;;;;;;5062084;28;20475;-82
2022/09/19 08:10:16;;;;;;;0.10;0.10;;;13.10;99.90;;;;;;5067028;28;20494;-80
2022/09/19 08:12:45;;;;;;;0.10;0.10;;;13.10;99.90;;;;;;5071651;28;20451;-80
2022/09/19 08:15:15;;;;;;;0.10;0.10;;;13.00;99.90;;;;;;5070080;28;20538;-79
2022/09/19 08:18:01;;;;;;;0.10;0.10;;;13.10;99.90;;;;;;5063625;28;20555;-84
2022/09/19 08:20:29;;;;;;;0.10;0.10;;;13.60;99.90;;;;;;5061858;28;21204;-84
2022/09/19 08:22:59;;;;;;;0.10;0.10;;;14.00;99.90;;;;;;5069274;28;20482;-85
2022/09/19 08:25:26;;;;;;;0.10;0.10;;;13.90;99.90;;;;;;5066815;28;20497;-79
2022/09/19 08:27:53;;;;;;;0.10;0.10;;;14.10;99.90;;;;;;5068131;28;20488;-82
2022/09/19 08:30:19;;;;;;;0.10;0.10;;;14.00;99.90;;;;;;5069889;28;20905;-80
2022/09/19 08:32:45;;;;;;;0.10;0.10;;;14.30;99.90;;;;;;5070182;28;20528;-80
2022/09/19 08:35:11;;;;;;;0.10;0.10;;;14.40;99.90;;;;;;5063094;28;20476;-80
2022/09/19 08:37:36;;;;;;;0.10;0.10;;;14.70;99.90;;;;;;5066628;28;20944;-80
2022/09/19 08:40:19;;;;;;;0.10;0.10;;;14.80;99.90;;;;;;5065918;28;20186;-80
2022/09/19 08:42:56;;;;;;;0.10;0.10;;;14.90;99.90;;;;;;5067338;28;20316;-80
2022/09/19 08:45:36;;;;;;;0.10;0.10;;;15.10;99.90;;;;;;5069340;28;20440;-80
2022/09/19 08:48:05;;;;;;;0.10;0.10;;;15.50;99.90;;;;;;5068589;28;20526;-80
2022/09/19 08:50:35;;;;;;;0.10;0.10;;;15.60;99.90;;;;;;5065704;28;20933;-80
2022/09/19 08:53:06;;;;;;;0.10;0.10;;;15.50;99.90;;;;;;5070996;28;20505;-80
2022/09/19 08:55:35;;;;;;;0.10;0.10;;;15.70;99.90;;;;;;5065826;28;20523;-80
2022/09/19 08:58:18;;;;;;;0.10;0.10;;;15.40;99.90;;;;;;5068678;28;20766;-80
2022/09/19 09:00:45;;;;;;;0.10;0.10;;;15.70;99.90;;;;;;5089527;28;20532;-80
2022/09/19 09:03:41;;;;;;;0.10;0.10;;;16.00;99.90;;;;;;5067192;28;21105;-80
2022/09/19 09:06:13;;;;;;;0.10;0.10;;;15.90;99.90;;;;;;5065329;28;20497;-80
2022/09/19 09:09:07;;;;;;;0.10;0.10;;;16.20;99.90;;;;;;5067800;28;20513;-81
2022/09/19 09:11:55;;;;;;;0.10;0.10;;;16.30;99.90;;;;;;5065050;28;20481;-79
2022/09/19 09:14:46;;;;;;;0.10;0.10;;;16.00;99.90;;;;;;5068693;28;20490;-79
2022/09/19 09:17:36;;;;;;;0.10;0.10;;;15.80;99.90;;;;;;5058056;28;20951;-79
2022/09/19 09:20:18;;;;;;;0.10;0.10;;;16.20;99.90;;;;;;5069485;28;20456;-81
2022/09/19 09:22:48;;;;;;;0.10;0.10;;;16.70;99.90;;;;;;5067688;28;20519;-82
2022/09/19 09:25:28;;;;;;;0.10;0.10;;;16.90;99.90;;;;;;5063977;28;20495;-82
2022/09/19 09:28:06;;;;;;;0.10;0.10;;;17.30;99.90;;;;;;5071242;28;20486;-82
2022/09/19 09:30:37;;;;;;;0.10;0.10;;;17.20;99.90;;;;;;5082042;28;20434;-81
2022/09/19 09:33:21;;;;;;;0.10;0.10;;;17.00;99.90;;;;;;5064184;28;21185;-81
2022/09/19 09:35:54;;;;;;;0.10;0.10;;;17.40;99.90;;;;;;5065493;28;20514;-82
2022/09/19 09:38:40;;;;;;;0.10;0.10;;;17.60;99.90;;;;;;5064031;28;21281;-82
2022/09/19 09:44:15;;;;;;;0.10;0.00;;;18.30;99.90;;;;;;5066468;28;20578;-82
2022/09/19 09:46:49;;;;;;;0.10;0.10;;;18.50;99.90;;;;;;5068406;28;20444;-82
2022/09/19 09:49:18;;;;;;;0.10;0.00;;;18.90;99.90;;;;;;5069104;28;20534;-81
2022/09/19 09:52:06;;;;;;;0.10;0.10;;;18.80;99.90;;;;;;5067286;28;20440;-81
2022/09/19 09:57:49;;;;;;;0.10;0.10;;;19.10;99.90;;;;;;5066308;28;20975;-82
2022/09/19 10:03:43;;;;;;;0.10;0.00;;;19.10;99.90;;;;;;5067723;28;20447;-81
2022/09/19 10:06:35;;;;;;;0.10;0.00;;;18.30;99.90;;;;;;5056405;28;21027;-81
2022/09/19 10:09:25;;;;;;;0.10;0.10;;;18.40;99.90;;;;;;5069576;28;20440;-81
2022/09/19 10:12:23;;;;;;;0.10;0.00;;;18.70;99.90;;;;;;5062093;28;20479;-82
2022/09/19 10:14:58;;;;;;;0.10;0.00;;;19.10;99.90;;;;;;5063377;28;20535;-81
2022/09/19 10:17:26;;;;;;;0.10;0.00;;;19.60;99.90;;;;;;5068436;28;20451;-82
2022/09/19 10:19:57;;;;;;;0.10;0.00;;;20.00;99.90;;;;;;5065433;28;20501;-81
2022/09/19 10:22:23;;;;;;;0.10;0.00;;;20.40;99.90;;;;;;5065190;28;20433;-81
2022/09/19 10:24:51;;;;;;;0.10;0.00;;;20.40;99.90;;;;;;5061308;28;21000;-81
2022/09/19 10:27:23;;;;;;;0.10;0.00;;;20.40;99.90;;;;;;5069126;28;20459;-81
2022/09/19 10:29:53;;;;;;;0.10;0.00;;;20.90;99.90;;;;;;5062457;28;20536;-82
2022/09/19 10:32:24;;;;;;;0.10;0.00;;;20.90;99.90;;;;;;5057986;28;20834;-82
2022/09/19 10:34:50;;;;;;;0.10;0.00;;;21.00;99.90;;;;;;5065293;28;20479;-82
2022/09/19 10:37:21;;;;;;;0.10;0.00;;;20.80;99.90;;;;;;5067533;28;20470;-81
2022/09/19 10:39:48;;;;;;;0.10;0.00;;;20.00;99.90;;;;;;5064829;28;20924;-83
2022/09/19 10:42:37;;;;;;;0.10;0.00;;;20.10;99.90;;;;;;5062378;28;20440;-82
2022/09/19 10:45:19;;;;;;;0.10;0.10;;;19.80;99.90;;;;;;5068718;28;20443;-82
2022/09/19 10:47:47;;;;;;;0.10;0.00;;;20.00;99.90;;;;;;5068959;28;20472;-82
2022/09/19 10:50:16;;;;;;;0.10;0.00;;;20.20;99.90;;;;;;5068844;28;20497;-82
2022/09/19 10:52:44;;;;;;;0.10;0.00;;;20.00;99.90;;;;;;5068167;28;20800;-82
2022/09/19 10:55:20;;;;;;;0.10;0.00;;;20.30;99.90;;;;;;5067926;28;20530;-82
2022/09/19 10:57:57;;;;;;;0.10;0.00;;;20.40;99.90;;;;;;5068349;28;20865;-82
2022/09/19 11:00:30;;;;;;;0.10;0.00;;;20.30;99.90;;;;;;5067092;28;20653;-81
2022/09/19 11:02:58;;;;;;;0.10;0.00;;;20.20;99.90;;;;;;5073023;28;20444;-81
2022/09/19 11:05:30;;;;;;;0.10;0.00;;;19.90;99.90;;;;;;5065172;28;20436;-80
2022/09/19 11:07:56;;;;;;;0.10;0.00;;;19.50;99.90;;;;;;5066637;28;20495;-81
2022/09/19 11:10:37;;;;;;;0.10;0.00;;;19.50;99.90;;;;;;5066051;28;20493;-81
2022/09/19 11:13:06;;;;;;;0.10;0.00;;;19.60;99.90;;;;;;5069812;28;20436;-81
2022/09/19 11:15:40;;;;;;;0.10;0.00;;;20.00;99.90;;;;;;5071055;28;20545;-81
2022/09/19 11:18:22;;;;;;;0.10;0.00;;;19.80;99.90;;;;;;5069206;28;20473;-81
2022/09/19 11:21:05;;;;;;;0.10;0.00;;;19.30;99.90;;;;;;5068342;28;21056;-81
2022/09/19 11:23:56;;;;;;;0.10;0.00;;;20.50;99.90;;;;;;5069826;28;20427;-82
2022/09/19 11:26:58;;;;;;;0.10;0.00;;;21.30;99.90;;;;;;5065924;28;20468;-81
2022/09/19 11:29:54;;;;;;;0.10;0.00;;;22.10;99.90;;;;;;5069764;28;20474;-81
2022/09/19 11:32:50;;;;;;;0.10;0.00;;;22.30;99.90;;;;;;5068218;28;20436;-81
2022/09/19 11:35:31;;;;;;;0.10;0.00;;;23.20;99.90;;;;;;5056565;28;20529;-82
2022/09/19 11:38:29;;;;;;;0.10;0.00;;;23.20;99.90;;;;;;5069790;28;20757;-82
2022/09/19 11:41:47;;;;;;;0.10;0.00;;;23.10;99.90;;;;;;5061979;28;20429;-81
2022/09/19 11:44:56;;;;;;;0.10;0.00;;;23.90;99.90;;;;;;5064840;28;20957;-81
2022/09/19 11:47:50;;;;;;;0.10;0.00;;;22.90;99.90;;;;;;5069175;28;20990;-79
2022/09/19 11:50:48;;;;;;;0.10;0.00;;;22.60;99.90;;;;;;5083414;28;20447;-79
2022/09/19 11:53:40;;;;;;;0.10;0.00;;;23.80;99.90;;;;;;5066163;28;20515;-79
2022/09/19 11:56:36;;;;;;;0.10;0.00;;;22.10;99.90;;;;;;5062021;28;20447;-80
2022/09/19 11:59:43;;;;;;;0.10;0.00;;;21.00;99.90;;;;;;5070893;28;20974;-80
2022/09/19 12:02:41;;;;;;;0.10;0.00;;;19.50;99.90;;;;;;5052919;28;20500;-80
2022/09/19 12:05:27;;;;;;;0.10;0.00;;;18.90;99.90;;;;;;5066660;28;20496;-80
2022/09/19 12:08:25;;;;;;;0.10;0.00;;;18.40;99.90;;;;;;5066750;28;21160;-80
2022/09/19 12:10:59;;;;;;;0.10;0.00;;;18.10;99.90;;;;;;5071691;28;20951;-80
2022/09/19 12:13:33;;;;;;;0.10;0.00;;;20.10;99.90;;;;;;5066122;28;20436;-80
2022/09/19 12:16:04;;;;;;;0.10;0.00;;;20.60;99.90;;;;;;5065699;28;20820;-80
2022/09/19 12:19:10;;;;;;;0.10;0.00;;;19.90;99.90;;;;;;5062284;28;20448;-80
2022/09/19 12:21:47;;;;;;;0.10;0.00;;;19.10;99.90;;;;;;5047796;28;20517;-80
2022/09/19 12:27:14;;;;;;;0.10;0.00;;;18.10;99.90;;;;;;5065843;28;20463;-80
2022/09/19 12:30:05;;;;;;;0.10;0.00;;;17.90;99.90;;;;;;5070502;28;20459;-80
2022/09/19 12:32:47;;;;;;;0.10;0.00;;;18.10;99.90;;;;;;5069846;28;20444;-80
2022/09/19 12:35:40;;;;;;;0.10;0.10;;;17.70;99.90;;;;;;5067277;28;20491;-80
2022/09/19 12:38:50;;;;;;;0.10;0.10;;;17.50;99.90;;;;;;5072378;28;20434;-80
2022/09/19 12:41:34;;;;;;;0.10;0.10;;;17.40;99.90;;;;;;5068820;28;20443;-80
2022/09/19 12:44:15;;;;;;;0.10;0.00;;;17.20;99.90;;;;;;5068846;28;20440;-80
2022/09/19 12:46:57;;;;;;;0.10;0.10;;;17.00;99.90;;;;;;5071501;28;20439;-80
2022/09/19 12:49:45;;;;;;;0.10;0.10;;;16.70;99.90;;;;;;5071062;28;20432;-80
2022/09/19 12:52:26;;;;;;;0.10;0.10;;;16.40;99.90;;;;;;5070177;28;20443;-80
2022/09/19 12:55:04;;;;;;;0.10;0.10;;;16.40;99.90;;;;;;5064752;28;20436;-80
2022/09/19 12:57:47;;;;;;;0.10;0.10;;;16.30;99.90;;;;;;5071668;28;20499;-80
2022/09/19 13:00:13;;;;;;;0.10;0.10;;;16.40;99.90;;;;;;5077060;28;20522;-80
2022/09/19 13:02:56;;;;;;;0.10;0.10;;;16.40;99.90;;;;;;5063477;28;20956;-81
2022/09/19 13:05:38;;;;;;;0.10;0.10;;;16.40;99.90;;;;;;5055290;28;20994;-80
2022/09/19 13:08:12;;;;;;;0.10;0.10;;;16.30;99.90;;;;;;5065055;28;20487;-78
2022/09/19 13:10:42;;;;;;;0.10;0.10;;;17.00;99.90;;;;;;5071552;28;20420;-80
2022/09/19 13:13:35;;;;;;;0.10;0.00;;;17.50;99.90;;;;;;5071301;28;20413;-80
2022/09/19 13:16:10;;;;;;;0.10;0.00;;;18.00;99.90;;;;;;5085550;28;20509;-80
2022/09/19 13:24:18;;;;;;;0.10;0.10;;;17.60;99.90;;;;;;5064037;28;20438;-81
2022/09/19 13:26:56;;;;;;;0.10;0.10;;;17.20;99.90;;;;;;5068263;28;20432;-81
2022/09/19 13:29:28;;;;;;;0.10;0.10;;;16.80;99.90;;;;;;5067613;28;20459;-81
2022/09/19 13:31:56;;;;;;;0.10;0.10;;;16.50;99.90;;;;;;5066317;28;20578;-80
2022/09/19 13:35:00;;;;;;;0.10;0.10;;;16.20;99.90;;;;;;5063340;28;20475;-80
2022/09/19 13:37:25;;;;;;;0.10;0.10;;;15.90;99.90;;;;;;5065061;28;20439;-82
2022/09/19 13:40:15;;;;;;;0.10;0.10;;;15.70;99.90;;;;;;5067293;28;20505;-80
2022/09/19 13:43:11;;;;;;;0.10;0.00;;;15.50;99.90;;;;;;5078799;28;20595;-78
2022/09/19 13:45:59;;;;;;;0.10;0.10;;;15.20;99.90;;;;;;5068239;28;20440;-78
2022/09/19 13:48:52;;;;;;;0.10;0.10;;;14.90;99.90;;;;;;5068881;28;21235;-78